createdAt,value
2023-03-17T00:01:55.053Z,74.72
2023-03-17T00:04:26.256Z,85.20
2023-03-17T00:06:54.583Z,70.15
2023-03-17T00:09:22.326Z,67.72
2023-03-17T00:11:50.146Z,66.95
2023-03-17T00:14:17.822Z,57.70
2023-03-17T00:16:50.024Z,57.78
2023-03-17T00:19:37.165Z,71.18
2023-03-17T00:22:06.657Z,68.85
2023-03-17T00:24:33.612Z,58.97
2023-03-17T00:27:01.178Z,64.93
2023-03-17T00:29:28.354Z,64.75
2023-03-17T00:31:57.582Z,65.63
2023-03-17T00:34:24.611Z,66.05
2023-03-17T00:36:52.544Z,70.57
2023-03-17T00:39:19.757Z,63.28
2023-03-17T00:44:13.218Z,64.43
2023-03-17T00:46:41.494Z,74.28
2023-03-17T00:51:43.794Z,82.47
2023-03-17T00:54:11.919Z,81.85
2023-03-17T00:56:40.744Z,97.60
2023-03-17T00:59:26.018Z,84.20
2023-03-17T01:01:52.980Z,91.75
2023-03-17T01:04:20.063Z,99.47
2023-03-17T01:06:48.226Z,86.85
2023-03-17T01:09:18.578Z,99.85
2023-03-17T01:11:45.685Z,99.72
2023-03-17T01:14:12.842Z,105.47
2023-03-17T01:16:39.805Z,97.88
2023-03-17T01:19:06.928Z,89.00
2023-03-17T01:21:33.826Z,100.47
2023-03-17T01:24:00.669Z,96.22
2023-03-17T01:26:27.796Z,100.85
2023-03-17T01:28:54.817Z,101.30
2023-03-17T01:31:23.535Z,93.20
2023-03-17T01:33:51.336Z,97.30
2023-03-17T01:36:18.324Z,104.88
2023-03-17T01:38:48.581Z,102.53
2023-03-17T01:41:15.459Z,96.57
2023-03-17T01:43:42.621Z,107.65
2023-03-17T01:46:29.541Z,105.43
2023-03-17T01:48:56.220Z,105.00
2023-03-17T01:51:47.188Z,100.65
2023-03-17T01:54:24.257Z,104.63
2023-03-17T01:56:53.696Z,103.50
2023-03-17T01:59:25.872Z,112.53
2023-03-17T02:02:02.349Z,114.23
2023-03-17T02:04:29.711Z,106.53
2023-03-17T02:06:58.809Z,102.70
2023-03-17T02:09:27.684Z,109.78
2023-03-17T02:11:55.667Z,108.47
2023-03-17T02:14:22.514Z,100.85
2023-03-17T02:16:49.464Z,100.00
2023-03-17T02:19:17.123Z,101.47
2023-03-17T02:21:56.868Z,104.93
2023-03-17T02:24:27.532Z,101.75
2023-03-17T02:26:56.106Z,107.93
2023-03-17T02:29:23.846Z,123.70
2023-03-17T02:31:50.981Z,109.88
2023-03-17T02:34:18.303Z,104.47
2023-03-17T02:36:46.676Z,110.13
2023-03-17T02:39:13.768Z,104.50
2023-03-17T02:41:40.525Z,101.47
2023-03-17T02:44:07.330Z,112.18
2023-03-17T02:46:34.092Z,99.68
2023-03-17T02:49:02.055Z,107.03
2023-03-17T02:51:29.968Z,106.90
2023-03-17T02:53:57.142Z,109.38
2023-03-17T02:56:24.090Z,102.07
2023-03-17T02:58:51.804Z,101.13
2023-03-17T03:01:18.986Z,104.97
2023-03-17T03:03:45.938Z,103.10
2023-03-17T03:06:13.386Z,107.60
2023-03-17T03:08:40.642Z,97.70
2023-03-17T03:11:07.774Z,102.35
2023-03-17T03:13:34.540Z,98.97
2023-03-17T03:16:01.698Z,90.22
2023-03-17T03:18:28.579Z,102.88
2023-03-17T03:20:55.389Z,93.72
2023-03-17T03:23:22.198Z,92.75
2023-03-17T03:25:49.022Z,105.22
2023-03-17T03:28:16.294Z,101.93
2023-03-17T03:30:44.713Z,95.03
2023-03-17T03:33:13.344Z,101.95
2023-03-17T03:35:40.757Z,106.38
2023-03-17T03:38:08.355Z,92.03
2023-03-17T03:40:36.945Z,106.20
2023-03-17T03:43:16.313Z,98.28
2023-03-17T03:45:48.909Z,86.50
2023-03-17T03:48:16.240Z,107.50
2023-03-17T03:50:43.002Z,92.75
2023-03-17T03:53:10.166Z,101.40
2023-03-17T03:55:37.846Z,94.60
2023-03-17T03:58:04.970Z,81.05
2023-03-17T04:00:32.305Z,88.90
2023-03-17T04:02:59.995Z,83.32
2023-03-17T04:05:26.790Z,88.20
2023-03-17T04:07:54.219Z,79.75
2023-03-17T04:10:21.854Z,83.65
2023-03-17T04:12:48.589Z,82.43
2023-03-17T04:15:17.220Z,83.05
2023-03-17T04:17:44.465Z,73.43
2023-03-17T04:20:13.162Z,77.38
2023-03-17T04:22:41.793Z,85.70
2023-03-17T04:25:10.685Z,85.47
2023-03-17T04:27:37.947Z,79.00
2023-03-17T04:30:06.178Z,77.03
2023-03-17T04:32:33.694Z,74.07
2023-03-17T04:35:00.678Z,78.50
2023-03-17T04:37:27.883Z,80.50
2023-03-17T04:39:55.976Z,72.38
2023-03-17T04:42:23.204Z,68.22
2023-03-17T04:44:50.341Z,76.72
2023-03-17T04:47:17.232Z,73.50
2023-03-17T04:49:44.484Z,72.57
2023-03-17T04:52:11.571Z,72.68
2023-03-17T04:54:38.796Z,66.75
2023-03-17T04:57:06.044Z,69.88
2023-03-17T04:59:32.859Z,66.85
2023-03-17T05:01:59.756Z,69.45
2023-03-17T05:04:31.767Z,71.28
2023-03-17T05:06:59.657Z,67.70
2023-03-17T05:09:28.729Z,65.40
2023-03-17T05:11:56.177Z,77.07
2023-03-17T05:14:23.687Z,76.45
2023-03-17T05:16:51.154Z,78.50
2023-03-17T05:19:18.508Z,76.43
2023-03-17T05:21:45.707Z,81.65
2023-03-17T05:24:12.647Z,79.35
2023-03-17T05:26:40.101Z,173.10
2023-03-17T05:29:07.417Z,317.70
2023-03-17T05:31:34.571Z,226.63
2023-03-17T05:34:02.414Z,104.07
2023-03-17T05:36:29.691Z,113.55
2023-03-17T05:38:56.880Z,283.30
2023-03-17T05:41:23.680Z,73.68
2023-03-17T05:43:50.749Z,72.07
2023-03-17T05:46:20.237Z,76.93
2023-03-17T05:48:47.364Z,70.63
2023-03-17T05:51:14.601Z,78.93
2023-03-17T05:53:41.871Z,80.90
2023-03-17T05:56:09.384Z,83.75
2023-03-17T05:58:36.606Z,81.88
2023-03-17T06:01:03.450Z,80.35
2023-03-17T06:03:31.086Z,88.25
2023-03-17T06:05:58.352Z,78.10
2023-03-17T06:08:25.234Z,76.63
2023-03-17T06:10:52.688Z,78.82
2023-03-17T06:13:20.114Z,80.55
2023-03-17T06:15:51.836Z,69.00
2023-03-17T06:18:19.872Z,64.20
2023-03-17T06:20:47.296Z,93.07
2023-03-17T06:23:14.238Z,75.90
2023-03-17T06:25:41.635Z,71.85
2023-03-17T06:28:08.887Z,80.15
2023-03-17T06:30:40.381Z,70.53
2023-03-17T06:33:08.271Z,99.10
2023-03-17T06:35:36.299Z,81.50
2023-03-17T06:38:03.808Z,67.30
2023-03-17T06:40:32.139Z,64.60
2023-03-17T06:42:59.556Z,60.17
2023-03-17T06:45:26.851Z,61.10
2023-03-17T06:47:54.129Z,57.70
2023-03-17T06:50:21.433Z,60.70
2023-03-17T06:52:48.256Z,54.60
2023-03-17T06:55:15.901Z,57.13
2023-03-17T06:57:43.287Z,60.75
2023-03-17T07:00:12.686Z,55.17
2023-03-17T07:02:39.870Z,52.92
2023-03-17T07:05:08.181Z,59.05
2023-03-17T07:07:35.689Z,60.72
2023-03-17T07:10:04.246Z,51.17
2023-03-17T07:12:31.566Z,46.83
2023-03-17T07:14:59.086Z,43.20
2023-03-17T07:17:26.167Z,50.20
2023-03-17T07:19:53.462Z,34.83
2023-03-17T07:22:20.517Z,33.25
2023-03-17T07:24:49.241Z,37.22
2023-03-17T07:27:16.972Z,29.08
2023-03-17T07:29:44.378Z,25.50
2023-03-17T07:32:11.402Z,31.05
2023-03-17T07:34:38.265Z,29.05
2023-03-17T07:37:06.996Z,29.45
2023-03-17T07:39:34.373Z,26.17
2023-03-17T07:42:01.557Z,29.23
2023-03-17T07:44:28.941Z,23.88
2023-03-17T07:46:56.678Z,25.63
2023-03-17T07:49:40.033Z,30.20
2023-03-17T07:52:08.603Z,28.80
2023-03-17T07:54:37.059Z,17.88
2023-03-17T07:57:04.574Z,25.70
2023-03-17T07:59:31.767Z,72.45
2023-03-17T08:02:01.414Z,17.08
2023-03-17T08:04:29.281Z,18.05
2023-03-17T08:06:57.266Z,12.35
2023-03-17T08:09:24.385Z,17.50
2023-03-17T08:11:51.653Z,15.60
2023-03-17T08:14:18.934Z,15.68
2023-03-17T08:16:46.022Z,15.93
2023-03-17T08:19:13.354Z,16.45
2023-03-17T08:21:40.967Z,14.73
2023-03-17T08:24:08.501Z,13.68
2023-03-17T08:26:36.264Z,19.98
2023-03-17T08:29:05.151Z,16.27
2023-03-17T08:31:34.138Z,17.23
2023-03-17T08:34:02.701Z,13.38
2023-03-17T08:36:29.961Z,15.30
2023-03-17T08:38:57.224Z,19.52
2023-03-17T08:41:26.958Z,13.07
2023-03-17T08:43:54.915Z,14.02
2023-03-17T08:46:30.095Z,13.50
2023-03-17T08:48:58.155Z,14.27
2023-03-17T08:51:27.235Z,10.63
2023-03-17T08:53:55.071Z,13.95
2023-03-17T08:56:22.749Z,73.07
2023-03-17T08:58:50.777Z,11.70
2023-03-17T09:01:19.109Z,8.93
2023-03-17T09:03:46.817Z,9.27
2023-03-17T09:06:14.401Z,8.88
2023-03-17T09:08:45.161Z,14.57
2023-03-17T09:11:14.919Z,14.88
2023-03-17T09:13:42.154Z,12.43
2023-03-17T09:16:10.982Z,9.85
2023-03-17T09:18:38.279Z,13.63
2023-03-17T09:21:05.955Z,13.77
2023-03-17T09:23:34.496Z,12.98
2023-03-17T09:26:02.323Z,14.10
2023-03-17T09:28:29.616Z,16.33
2023-03-17T09:31:03.761Z,15.10
2023-03-17T09:33:31.099Z,15.20
2023-03-17T09:35:58.027Z,11.15
2023-03-17T09:38:26.428Z,63.55
2023-03-17T09:40:53.670Z,12.93
2023-03-17T09:43:41.794Z,13.10
2023-03-17T09:46:43.788Z,8.98
2023-03-17T09:49:21.168Z,9.13
2023-03-17T09:51:49.503Z,13.00
2023-03-17T09:54:18.478Z,13.02
2023-03-17T09:56:51.388Z,7.55
2023-03-17T09:59:34.929Z,10.68
2023-03-17T10:02:02.419Z,12.85
2023-03-17T10:04:29.708Z,11.57
2023-03-17T10:07:07.034Z,24.00
2023-03-17T10:09:43.101Z,52.15
2023-03-17T10:12:24.793Z,9.32
2023-03-17T10:15:04.635Z,8.98
2023-03-17T10:17:40.767Z,23.98
2023-03-17T10:20:09.190Z,11.80
2023-03-17T10:23:01.111Z,11.35
2023-03-17T10:25:34.011Z,11.75
2023-03-17T10:30:39.837Z,13.60
2023-03-17T10:33:07.799Z,6.05
2023-03-17T10:35:37.574Z,8.88
2023-03-17T10:38:20.303Z,12.40
2023-03-17T10:40:58.287Z,9.82
2023-03-17T10:43:30.554Z,8.52
2023-03-17T10:46:04.013Z,12.17
2023-03-17T10:48:36.101Z,28.00
2023-03-17T10:51:09.919Z,12.07
2023-03-17T10:53:43.031Z,12.75
2023-03-17T10:58:55.598Z,25.00
2023-03-17T11:01:36.594Z,7.47
2023-03-17T11:04:03.989Z,12.45
2023-03-17T11:06:41.486Z,10.95
2023-03-17T11:09:11.069Z,6.82
2023-03-17T11:11:47.627Z,7.22
2023-03-17T11:14:18.689Z,7.68
2023-03-17T11:17:01.638Z,7.63
2023-03-17T11:19:28.851Z,9.23
2023-03-17T11:22:00.159Z,12.07
2023-03-17T11:24:33.629Z,11.35
2023-03-17T11:27:07.212Z,8.70
2023-03-17T11:29:52.583Z,6.28
2023-03-17T11:32:20.207Z,11.18
2023-03-17T11:34:47.840Z,5.78
2023-03-17T11:37:26.412Z,8.18
2023-03-17T11:39:56.573Z,13.73
2023-03-17T11:42:25.966Z,7.38
2023-03-17T11:45:13.190Z,10.95
2023-03-17T11:47:54.948Z,7.20
2023-03-17T11:50:22.360Z,10.75
2023-03-17T11:53:06.525Z,6.78
2023-03-17T11:55:36.394Z,9.35
2023-03-17T11:58:10.609Z,8.93
2023-03-17T12:00:45.881Z,6.45
2023-03-17T12:03:21.665Z,6.60
2023-03-17T12:05:52.492Z,11.73
2023-03-17T12:08:42.280Z,7.75
2023-03-17T12:11:17.198Z,7.03
2023-03-17T12:14:05.226Z,6.72
2023-03-17T12:16:48.125Z,10.00
2023-03-17T12:19:29.882Z,37.22
2023-03-17T12:22:05.698Z,9.75
2023-03-17T12:24:32.861Z,8.18
2023-03-17T12:27:01.918Z,12.20
2023-03-17T12:29:51.609Z,13.13
2023-03-17T12:32:55.695Z,8.43
2023-03-17T12:35:32.228Z,11.63
2023-03-17T12:38:02.789Z,7.05
2023-03-17T12:40:35.871Z,10.07
2023-03-17T12:45:50.858Z,10.68
2023-03-17T12:48:32.964Z,9.40
2023-03-17T12:51:31.432Z,6.85
2023-03-17T12:54:00.220Z,14.02
2023-03-17T12:56:34.681Z,9.93
2023-03-17T12:59:05.808Z,8.85
2023-03-17T13:01:54.351Z,5.65
2023-03-17T13:04:40.997Z,10.73
2023-03-17T13:07:22.194Z,21.70
2023-03-17T13:09:49.847Z,7.50
2023-03-17T13:12:44.515Z,11.93
2023-03-17T13:15:23.589Z,9.90
2023-03-17T13:18:10.803Z,10.13
2023-03-17T13:20:41.925Z,8.20
2023-03-17T13:23:16.071Z,12.43
2023-03-17T13:25:45.468Z,10.32
2023-03-17T13:28:12.327Z,9.73
2023-03-17T13:30:40.002Z,5.20
2023-03-17T13:33:09.795Z,8.40
2023-03-17T13:35:42.959Z,7.35
2023-03-17T13:38:46.776Z,9.27
2023-03-17T13:44:01.737Z,7.70
2023-03-17T13:46:39.195Z,10.13
2023-03-17T13:49:28.591Z,9.35
2023-03-17T13:52:01.694Z,6.30
2023-03-17T13:54:29.122Z,11.10
2023-03-17T13:57:20.312Z,6.95
2023-03-17T14:00:21.124Z,10.35
2023-03-17T14:02:49.971Z,9.25
2023-03-17T14:05:24.937Z,6.18
2023-03-17T14:07:58.841Z,7.65
2023-03-17T14:10:29.124Z,9.57
2023-03-17T14:13:07.089Z,7.75
2023-03-17T14:16:08.100Z,10.02
2023-03-17T14:18:38.886Z,11.88
2023-03-17T14:21:11.736Z,9.45
2023-03-17T14:23:38.657Z,9.60
2023-03-17T14:26:07.746Z,9.10
2023-03-17T14:28:35.588Z,9.73
2023-03-17T14:31:05.550Z,8.00
2023-03-17T14:33:38.348Z,10.93
2023-03-17T14:36:08.883Z,15.23
2023-03-17T14:38:46.085Z,10.18
2023-03-17T14:41:22.712Z,9.88
2023-03-17T14:43:52.328Z,10.55
2023-03-17T14:46:30.044Z,9.88
2023-03-17T14:49:20.972Z,9.57
2023-03-17T14:51:57.299Z,11.80
2023-03-17T14:54:28.782Z,11.32
2023-03-17T14:57:02.148Z,9.68
2023-03-17T14:59:38.814Z,11.90
2023-03-17T15:02:21.776Z,10.63
2023-03-17T15:05:03.214Z,15.25
2023-03-17T15:07:39.932Z,14.10
2023-03-17T15:10:17.585Z,9.50
2023-03-17T15:12:48.905Z,9.95
2023-03-17T15:15:32.525Z,8.35
2023-03-17T15:18:03.836Z,14.98
2023-03-17T15:20:31.917Z,14.50
2023-03-17T15:23:03.230Z,13.57
2023-03-17T15:25:33.149Z,11.88
2023-03-17T15:28:00.277Z,12.82
2023-03-17T15:30:37.367Z,9.63
2023-03-17T15:33:16.940Z,10.75
2023-03-17T15:35:44.493Z,9.77
2023-03-17T15:38:12.219Z,9.10
2023-03-17T15:40:39.482Z,10.63
2023-03-17T15:43:06.805Z,7.82
2023-03-17T15:45:34.043Z,10.18
2023-03-17T15:48:01.316Z,10.55
2023-03-17T15:50:31.464Z,7.70
2023-03-17T15:52:59.124Z,14.55
2023-03-17T15:55:31.411Z,15.82
2023-03-17T15:57:59.407Z,14.60
2023-03-17T16:00:29.712Z,15.73
2023-03-17T16:03:02.193Z,13.68
2023-03-17T16:05:34.379Z,13.48
2023-03-17T16:08:01.948Z,14.52
2023-03-17T16:10:30.890Z,12.73
2023-03-17T16:12:58.654Z,12.07
2023-03-17T16:15:28.402Z,11.48
2023-03-17T16:17:56.711Z,16.55
2023-03-17T16:20:28.366Z,16.95
2023-03-17T16:22:57.112Z,15.43
2023-03-17T16:25:28.004Z,16.85
2023-03-17T16:27:56.154Z,15.35
2023-03-17T16:30:27.547Z,17.90
2023-03-17T16:32:55.335Z,21.23
2023-03-17T16:35:23.445Z,18.13
2023-03-17T16:37:59.799Z,73.35
2023-03-17T16:40:50.216Z,27.65
2023-03-17T16:43:33.173Z,20.95
2023-03-17T16:46:02.675Z,18.45
2023-03-17T16:48:31.156Z,21.70
2023-03-17T16:50:58.902Z,22.27
2023-03-17T16:53:26.960Z,16.88
2023-03-17T16:55:55.144Z,22.17
2023-03-17T16:58:24.102Z,24.85
2023-03-17T17:00:52.872Z,21.10
2023-03-17T17:03:20.300Z,16.95
2023-03-17T17:05:47.722Z,27.70
2023-03-17T17:08:15.099Z,21.33
2023-03-17T17:10:42.302Z,28.13
2023-03-17T17:13:10.379Z,26.58
2023-03-17T17:15:38.458Z,27.23
2023-03-17T17:18:11.396Z,25.85
2023-03-17T17:20:39.518Z,32.42
2023-03-17T17:23:11.022Z,45.95
2023-03-17T17:25:38.250Z,28.50
2023-03-17T17:28:05.676Z,26.95
2023-03-17T17:30:33.484Z,27.92
2023-03-17T17:33:01.535Z,35.20
2023-03-17T17:35:32.401Z,26.95
2023-03-17T17:38:01.052Z,28.70
2023-03-17T17:40:28.830Z,28.30
2023-03-17T17:42:55.710Z,28.88
2023-03-17T17:45:22.579Z,32.72
2023-03-17T17:47:50.108Z,29.08
2023-03-17T17:50:24.394Z,34.58
2023-03-17T17:52:51.386Z,28.45
2023-03-17T17:55:18.615Z,29.88
2023-03-17T17:57:45.623Z,25.67
2023-03-17T18:00:15.458Z,26.95
2023-03-17T18:02:42.684Z,28.02
2023-03-17T18:05:10.206Z,28.05
2023-03-17T18:07:37.086Z,29.30
2023-03-17T18:10:05.230Z,24.58
2023-03-17T18:12:32.650Z,26.25
2023-03-17T18:14:59.876Z,38.35
2023-03-17T18:17:27.330Z,25.30
2023-03-17T18:19:55.010Z,23.45
2023-03-17T18:22:22.644Z,26.30
2023-03-17T18:24:49.982Z,25.17
2023-03-17T18:27:17.380Z,27.13
2023-03-17T18:29:44.947Z,21.27
2023-03-17T18:32:12.628Z,28.77
2023-03-17T18:34:45.956Z,30.20
2023-03-17T18:39:41.954Z,27.98
2023-03-17T18:42:09.370Z,27.60
2023-03-17T18:44:36.903Z,25.17
2023-03-17T18:47:04.044Z,25.40
2023-03-17T18:49:31.308Z,34.50
2023-03-17T18:51:59.591Z,29.75
2023-03-17T18:54:28.070Z,29.25
2023-03-17T18:56:55.989Z,29.45
2023-03-17T18:59:22.901Z,33.22
2023-03-17T19:01:49.762Z,21.75
2023-03-17T19:04:17.029Z,34.95
2023-03-17T19:06:43.892Z,28.80
2023-03-17T19:09:11.108Z,31.50
2023-03-17T19:11:39.427Z,29.77
2023-03-17T19:14:08.380Z,96.40
2023-03-17T19:16:35.851Z,31.40
2023-03-17T19:19:03.180Z,31.30
2023-03-17T19:21:31.052Z,27.13
2023-03-17T19:24:00.687Z,29.25
2023-03-17T19:26:27.772Z,20.58
2023-03-17T19:28:56.330Z,38.15
2023-03-17T19:31:24.849Z,28.85
2023-03-17T19:33:52.041Z,34.17
2023-03-17T19:36:19.898Z,29.88
2023-03-17T19:38:47.241Z,26.35
2023-03-17T19:41:15.788Z,34.88
2023-03-17T19:43:43.053Z,24.02
2023-03-17T19:46:11.979Z,37.22
2023-03-17T19:48:39.782Z,32.40
2023-03-17T19:51:08.084Z,24.98
2023-03-17T19:53:35.276Z,20.60
2023-03-17T19:56:02.647Z,22.55
2023-03-17T19:58:29.984Z,23.23
2023-03-17T20:00:56.831Z,24.60
2023-03-17T20:03:26.067Z,22.17
2023-03-17T20:05:53.735Z,25.83
2023-03-17T20:08:22.487Z,30.50
2023-03-17T20:10:55.723Z,20.15
2023-03-17T20:15:51.475Z,29.98
2023-03-17T20:18:19.755Z,24.85
2023-03-17T20:20:51.221Z,19.35
2023-03-17T20:23:18.446Z,16.60
2023-03-17T20:25:45.761Z,23.33
2023-03-17T20:28:13.105Z,24.52
2023-03-17T20:30:40.727Z,23.42
2023-03-17T20:33:09.861Z,24.48
2023-03-17T20:35:39.444Z,26.38
2023-03-17T20:38:07.492Z,27.17
2023-03-17T20:40:35.397Z,20.48
2023-03-17T20:43:02.613Z,22.27
2023-03-17T20:45:30.160Z,31.45
2023-03-17T20:47:57.493Z,25.33
2023-03-17T20:50:24.960Z,16.85
2023-03-17T20:52:52.477Z,27.73
2023-03-17T20:55:20.245Z,27.65
2023-03-17T20:57:49.390Z,27.05
2023-03-17T21:00:20.512Z,56.05
2023-03-17T21:02:50.233Z,29.23
2023-03-17T21:05:20.734Z,20.85
2023-03-17T21:07:49.078Z,19.08
2023-03-17T21:10:17.434Z,37.88
2023-03-17T21:12:45.022Z,28.13
2023-03-17T21:15:13.014Z,24.33
2023-03-17T21:17:42.203Z,25.85
2023-03-17T21:20:12.086Z,22.48
2023-03-17T21:22:40.011Z,31.98
2023-03-17T21:25:08.920Z,25.88
2023-03-17T21:27:40.372Z,21.85
2023-03-17T21:30:12.076Z,20.48
2023-03-17T21:32:39.668Z,25.27
2023-03-17T21:35:08.027Z,18.13
2023-03-17T21:37:35.279Z,25.08
2023-03-17T21:40:03.384Z,26.02
2023-03-17T21:42:30.677Z,30.10
2023-03-17T21:44:57.906Z,27.83
2023-03-17T21:47:25.152Z,23.25
2023-03-17T21:49:52.382Z,16.45
2023-03-17T21:52:20.919Z,32.05
2023-03-17T21:54:47.869Z,26.90
2023-03-17T21:57:14.710Z,27.30
2023-03-17T21:59:42.347Z,28.60
2023-03-17T22:02:12.467Z,22.73
2023-03-17T22:04:39.744Z,23.00
2023-03-17T22:07:07.076Z,27.40
2023-03-17T22:09:34.330Z,19.40
2023-03-17T22:12:01.793Z,20.13
2023-03-17T22:14:29.195Z,51.30
2023-03-17T22:16:57.216Z,22.77
2023-03-17T22:19:26.110Z,41.03
2023-03-17T22:21:53.741Z,19.52
2023-03-17T22:24:21.636Z,24.05
2023-03-17T22:26:49.604Z,14.00
2023-03-17T22:29:16.837Z,28.25
2023-03-17T22:31:43.788Z,20.05
2023-03-17T22:34:10.826Z,26.23
2023-03-17T22:36:38.004Z,16.55
2023-03-17T22:39:06.961Z,26.42
2023-03-17T22:41:34.315Z,24.73
2023-03-17T22:44:01.108Z,23.23
2023-03-17T22:46:28.549Z,32.15
2023-03-17T22:48:55.474Z,23.58
2023-03-17T22:51:27.010Z,19.50
2023-03-17T22:53:54.294Z,24.70
2023-03-17T22:56:21.572Z,22.65
2023-03-17T22:58:49.176Z,31.27
2023-03-17T23:01:17.217Z,18.27
2023-03-17T23:03:44.911Z,22.40
2023-03-17T23:06:13.268Z,116.78
2023-03-17T23:08:42.783Z,40.40
2023-03-17T23:11:23.171Z,28.67
2023-03-17T23:13:51.399Z,25.27
2023-03-17T23:16:19.034Z,29.05
2023-03-17T23:18:47.145Z,29.10
2023-03-17T23:21:33.038Z,19.63
2023-03-17T23:24:00.723Z,46.22
2023-03-17T23:26:28.393Z,27.92
2023-03-17T23:28:55.862Z,18.77
2023-03-17T23:31:23.396Z,28.60
2023-03-17T23:33:51.298Z,31.25
2023-03-17T23:36:21.996Z,46.33
2023-03-17T23:38:50.305Z,36.67
2023-03-17T23:41:18.466Z,26.50
2023-03-17T23:43:46.722Z,24.90
2023-03-17T23:46:14.804Z,31.63
2023-03-17T23:48:42.962Z,35.13
2023-03-17T23:51:12.128Z,23.75
2023-03-17T23:53:39.764Z,28.95
2023-03-17T23:56:11.446Z,25.98
2023-03-17T23:58:39.285Z,25.15
